Archival Weather

Prince Abdulmajeed Bin Abdula

Prince Abdulmajeed Bin Abdula, Saudi Arabia (OEAO)

Report from: Monday, May 23, 2022 12:00 PM UTC
Current time: Tuesday, August 16, 2022 6:54 AM UTC

Current weather
Weather history
Weather forecast

Temperature34.0°C (93.2°F)
Heat index31.5°C (88.6°F)
Dew point-4.0°C (24.8°F)
Winds 4 kts (2.1 m/s, 4.6 mph) North-Northeast (30°)
Clouds Sky clear
Altimeter29.80 in.Hg (1009 mB)
Relative humidity9 %
Density altitude2,381 ft. (726 m)
Remarks Ceiling and visibility OK
No significant changes expected in the next two hours
Flight conditions Visual Meteorological Conditions
Raw dataOEAO 231200Z 03004KT CAVOK 34/M04 Q1009 NOSIG
An error has occurred. This application may no longer respond until reloaded. Reload 🗙